Time;durP1;ratioP1;P1;durP2;ratioP2;P2;SDS_P1;SDS_P2;PMS_P1;PMS_P2;Temp;Humidity;BMP_temperature;BMP_pressure;BME280_temperature;BME280_humidity;BME280_pressure;Samples;Min_cycle;Max_cycle;Signal;HPM_P1;HPM_P2
2021/01/11 00:00:59;;;;;;;57.80;25.33;;;-2.50;99.90;;;;;;4173576;28;20379;-40
2021/01/11 00:03:00;;;;;;;55.83;24.23;;;-2.50;99.90;;;;;;4173769;28;20266;-44
2021/01/11 00:05:01;;;;;;;59.63;25.90;;;-2.50;99.90;;;;;;4174090;28;20308;-44
2021/01/11 00:07:02;;;;;;;55.37;25.77;;;-2.50;99.90;;;;;;4173646;28;20270;-39
2021/01/11 00:09:04;;;;;;;64.23;27.10;;;-2.50;99.90;;;;;;4173502;28;20927;-45
2021/01/11 00:11:05;;;;;;;61.33;25.93;;;-2.50;99.90;;;;;;4173329;28;20279;-39
2021/01/11 00:13:06;;;;;;;65.77;25.87;;;-2.60;99.90;;;;;;4173144;28;20665;-43
2021/01/11 00:15:09;;;;;;;64.10;27.97;;;-2.60;99.90;;;;;;4173367;28;20606;-41
2021/01/11 00:17:10;;;;;;;59.63;28.20;;;-2.60;99.90;;;;;;4173677;28;20319;-39
2021/01/11 00:19:11;;;;;;;59.83;28.03;;;-2.50;99.90;;;;;;4172689;28;20344;-45
2021/01/11 00:21:16;;;;;;;62.43;27.20;;;-2.50;99.90;;;;;;4173502;28;20305;-53
2021/01/11 00:23:17;;;;;;;59.50;27.90;;;-2.50;99.90;;;;;;4172868;28;20282;-44
2021/01/11 00:25:18;;;;;;;62.53;27.30;;;-2.50;99.90;;;;;;4172965;28;20387;-40
2021/01/11 00:27:19;;;;;;;63.27;26.77;;;-2.50;99.90;;;;;;4171935;28;20316;-40
2021/01/11 00:29:21;;;;;;;72.40;30.30;;;-2.40;99.90;;;;;;4173415;28;20339;-39
2021/01/11 00:31:26;;;;;;;67.20;28.07;;;-2.50;99.90;;;;;;4172430;28;20290;-40
2021/01/11 00:33:27;;;;;;;63.77;28.27;;;-2.40;99.90;;;;;;4172741;28;20343;-40
2021/01/11 00:35:28;;;;;;;60.63;27.03;;;-2.40;99.90;;;;;;4173223;28;20832;-42
2021/01/11 00:37:29;;;;;;;64.23;27.80;;;-2.40;99.90;;;;;;4172237;28;20311;-45
2021/01/11 00:39:31;;;;;;;60.63;27.33;;;-2.30;99.90;;;;;;4173102;28;20697;-42
2021/01/11 00:41:32;;;;;;;60.77;27.20;;;-2.30;99.90;;;;;;4173036;28;20382;-40
2021/01/11 00:43:33;;;;;;;62.77;26.63;;;-2.30;99.90;;;;;;4172653;28;20282;-39
2021/01/11 00:45:34;;;;;;;58.70;25.53;;;-2.30;99.90;;;;;;4172880;28;20335;-43
2021/01/11 00:47:39;;;;;;;57.90;25.67;;;-2.30;99.90;;;;;;4173515;28;20269;-40
2021/01/11 00:49:41;;;;;;;61.07;27.33;;;-2.40;99.90;;;;;;4172983;28;20320;-40
2021/01/11 00:51:43;;;;;;;57.10;25.77;;;-2.30;99.90;;;;;;4172514;28;20262;-40
2021/01/11 00:53:45;;;;;;;58.77;26.07;;;-2.30;99.90;;;;;;4172470;28;20328;-41
2021/01/11 00:55:46;;;;;;;56.60;24.93;;;-2.30;99.90;;;;;;4172494;28;20336;-40
2021/01/11 00:57:47;;;;;;;51.73;24.47;;;-2.30;99.90;;;;;;4173060;28;20730;-40
2021/01/11 00:59:48;;;;;;;59.13;26.73;;;-2.30;99.90;;;;;;4173003;28;20308;-42
2021/01/11 01:01:50;;;;;;;65.37;26.83;;;-2.30;99.90;;;;;;4172828;28;20355;-45
2021/01/11 01:03:52;;;;;;;53.33;24.63;;;-2.30;99.90;;;;;;4173314;28;20270;-40
2021/01/11 01:05:53;;;;;;;58.53;24.80;;;-2.30;99.90;;;;;;4172906;28;20262;-39
2021/01/11 01:07:54;;;;;;;57.90;25.63;;;-2.30;99.90;;;;;;4171791;28;20764;-40
2021/01/11 01:09:55;;;;;;;57.97;26.97;;;-2.30;99.90;;;;;;4172254;28;20747;-41
2021/01/11 01:11:56;;;;;;;60.30;26.93;;;-2.40;99.90;;;;;;4172295;28;20748;-45
2021/01/11 01:13:58;;;;;;;59.23;26.17;;;-2.40;99.90;;;;;;4172553;28;20273;-40
2021/01/11 01:15:59;;;;;;;61.00;28.07;;;-2.40;99.90;;;;;;4172594;28;20734;-44
2021/01/11 01:18:00;;;;;;;55.03;25.43;;;-2.40;99.90;;;;;;4172672;28;20737;-40
2021/01/11 01:20:07;;;;;;;58.53;25.73;;;-2.40;99.90;;;;;;4172291;28;20841;-40
2021/01/11 01:22:08;;;;;;;59.33;25.53;;;-2.40;99.90;;;;;;4172613;28;20305;-38
2021/01/11 01:24:09;;;;;;;57.50;24.43;;;-2.40;99.90;;;;;;4172744;28;20266;-40
2021/01/11 01:26:10;;;;;;;59.73;25.13;;;-2.40;99.90;;;;;;4172057;28;20688;-39
2021/01/11 01:28:12;;;;;;;57.73;25.27;;;-2.50;99.90;;;;;;4172848;28;20290;-44
2021/01/11 01:30:13;;;;;;;57.60;25.93;;;-2.50;99.90;;;;;;4171998;28;20775;-44
2021/01/11 01:32:14;;;;;;;65.10;28.20;;;-2.40;99.90;;;;;;4172660;28;20282;-42
2021/01/11 01:34:16;;;;;;;66.23;29.10;;;-2.40;99.90;;;;;;4172391;28;20348;-41
2021/01/11 01:36:20;;;;;;;66.67;27.77;;;-2.50;99.90;;;;;;4172283;28;20984;-42
2021/01/11 01:38:21;;;;;;;63.23;28.77;;;-2.50;99.90;;;;;;4172043;28;21128;-50
2021/01/11 01:40:24;;;;;;;59.77;27.07;;;-2.40;99.90;;;;;;4172155;28;20316;-39
2021/01/11 01:42:25;;;;;;;63.47;27.33;;;-2.40;99.90;;;;;;4172329;28;20343;-45
2021/01/11 01:44:26;;;;;;;66.13;28.60;;;-2.40;99.90;;;;;;4172563;28;20303;-41
2021/01/11 01:46:30;;;;;;;78.63;32.53;;;-2.30;99.90;;;;;;4172305;28;20820;-44
2021/01/11 01:48:32;;;;;;;70.77;29.90;;;-2.30;99.90;;;;;;4172183;28;20308;-39
2021/01/11 01:50:35;;;;;;;75.50;31.50;;;-2.30;99.90;;;;;;4172091;28;20324;-42
2021/01/11 01:52:39;;;;;;;58.90;26.20;;;-2.30;99.90;;;;;;4171829;28;20825;-40
2021/01/11 01:54:40;;;;;;;58.03;25.23;;;-2.20;99.90;;;;;;4172548;28;20332;-40
2021/01/11 01:56:42;;;;;;;56.67;25.63;;;-2.20;99.90;;;;;;4171596;28;20262;-48
2021/01/11 01:58:46;;;;;;;55.33;24.43;;;-2.20;99.90;;;;;;4172520;28;20270;-50
2021/01/11 02:00:48;;;;;;;57.33;26.70;;;-2.20;99.90;;;;;;4172028;28;20254;-41
2021/01/11 02:02:49;;;;;;;57.47;23.80;;;-2.20;99.90;;;;;;4172499;28;20742;-43
2021/01/11 02:04:50;;;;;;;48.73;23.10;;;-2.20;99.90;;;;;;4172572;28;20331;-40
2021/01/11 02:06:57;;;;;;;51.33;24.47;;;-2.10;99.90;;;;;;4174460;28;20300;-40
2021/01/11 02:09:13;;;;;;;55.80;23.47;;;-2.10;99.90;;;;;;4174756;28;20278;-39
2021/01/11 02:11:28;;;;;;;52.10;22.37;;;-2.10;99.90;;;;;;4174829;28;20266;-41
2021/01/11 02:13:29;;;;;;;49.37;22.97;;;-2.00;99.90;;;;;;4174916;28;20270;-40
2021/01/11 02:15:59;;;;;;;47.60;23.50;;;-2.00;99.90;;;;;;4175584;28;20315;-54
2021/01/11 02:18:06;;;;;;;47.47;22.43;;;-2.00;99.90;;;;;;4173633;28;20278;-54
2021/01/11 02:20:47;;;;;;;51.70;24.00;;;-2.00;99.90;;;;;;4175129;28;20328;-40
2021/01/11 02:23:15;;;;;;;52.60;23.63;;;-2.00;99.90;;;;;;4175152;28;20280;-58
2021/01/11 02:25:22;;;;;;;59.13;25.17;;;-2.00;99.90;;;;;;4175456;28;20444;-40
2021/01/11 02:27:41;;;;;;;55.20;24.27;;;-1.90;99.90;;;;;;4174547;28;20673;-40
2021/01/11 02:30:20;;;;;;;58.53;24.87;;;-1.90;99.90;;;;;;4173527;28;20343;-40
2021/01/11 02:32:22;;;;;;;47.73;22.57;;;-1.90;99.90;;;;;;4173627;28;21257;-48
2021/01/11 02:34:26;;;;;;;54.70;22.13;;;-1.90;99.90;;;;;;4174457;28;20282;-39
2021/01/11 02:36:27;;;;;;;52.37;24.93;;;-1.90;99.90;;;;;;4174330;28;21106;-47
2021/01/11 02:38:30;;;;;;;48.57;22.87;;;-1.90;99.90;;;;;;4173817;28;20270;-40
2021/01/11 02:40:32;;;;;;;50.20;22.50;;;-1.90;99.90;;;;;;4178109;28;20269;-40
2021/01/11 02:42:33;;;;;;;55.63;24.13;;;-1.90;99.90;;;;;;4190241;28;20423;-44
2021/01/11 02:44:34;;;;;;;47.67;22.63;;;-1.90;99.90;;;;;;4190816;28;20269;-40
2021/01/11 02:46:36;;;;;;;53.53;23.43;;;-2.00;99.90;;;;;;4190545;28;20667;-39
2021/01/11 02:48:49;;;;;;;57.70;25.17;;;-2.00;99.90;;;;;;4180104;28;20383;-39
2021/01/11 02:51:09;;;;;;;54.50;25.00;;;-2.10;99.90;;;;;;4173654;28;20395;-41
2021/01/11 02:53:21;;;;;;;55.00;24.20;;;-2.10;99.90;;;;;;4173985;28;20274;-41
2021/01/11 02:55:32;;;;;;;52.77;24.07;;;-2.10;99.90;;;;;;4173627;28;20045;-40
2021/01/11 02:57:53;;;;;;;54.93;24.63;;;-2.10;99.90;;;;;;4173380;28;20270;-48
2021/01/11 03:00:01;;;;;;;50.65;24.63;;;-2.20;99.90;;;;;;4173573;28;20666;-39
2021/01/11 03:02:10;;;;;;;46.43;22.63;;;-2.20;99.90;;;;;;4174013;28;20166;-47
2021/01/11 03:04:20;;;;;;;51.53;22.93;;;-2.20;99.90;;;;;;4174315;28;20324;-39
2021/01/11 03:06:29;;;;;;;51.67;23.60;;;-2.20;99.90;;;;;;4173452;28;20911;-40
2021/01/11 03:08:30;;;;;;;52.57;24.17;;;-2.20;99.90;;;;;;4173496;28;20270;-40
2021/01/11 03:10:32;;;;;;;48.40;23.00;;;-2.20;99.90;;;;;;4173488;28;20274;-44
2021/01/11 03:12:33;;;;;;;51.47;24.13;;;-2.20;99.90;;;;;;4173580;28;20355;-40
2021/01/11 03:14:34;;;;;;;48.60;22.57;;;-2.20;99.90;;;;;;4173206;28;20270;-38
2021/01/11 03:16:36;;;;;;;48.63;22.17;;;-2.10;99.90;;;;;;4173041;28;20336;-43
2021/01/11 03:18:37;;;;;;;51.27;22.47;;;-2.10;99.90;;;;;;4173681;28;20277;-42
2021/01/11 03:20:40;;;;;;;48.17;22.00;;;-2.10;99.90;;;;;;4172891;28;20290;-40
2021/01/11 03:22:41;;;;;;;45.67;22.17;;;-2.10;99.90;;;;;;4173452;28;20348;-42
2021/01/11 03:24:42;;;;;;;55.13;24.17;;;-2.10;99.90;;;;;;4172222;28;20269;-40
2021/01/11 03:26:44;;;;;;;55.37;23.30;;;-2.10;99.90;;;;;;4146432;28;745177;-42
2021/01/11 03:28:45;;;;;;;52.67;23.70;;;-2.00;99.90;;;;;;4174272;28;20332;-40
2021/01/11 03:30:47;;;;;;;48.90;24.27;;;-1.90;99.90;;;;;;4173772;28;20320;-38
2021/01/11 03:32:49;;;;;;;51.30;23.90;;;-1.90;99.90;;;;;;4174374;28;20336;-40
2021/01/11 03:34:51;;;;;;;48.13;22.27;;;-1.90;99.90;;;;;;4174431;28;20304;-40
2021/01/11 03:36:52;;;;;;;51.13;24.07;;;-1.90;99.90;;;;;;4174342;28;20262;-41
2021/01/11 03:38:53;;;;;;;48.13;22.37;;;-1.90;99.90;;;;;;4174035;28;20831;-43
2021/01/11 03:41:03;;;;;;;48.50;23.43;;;-1.90;99.90;;;;;;4173680;28;20865;-40
2021/01/11 03:43:04;;;;;;;53.13;24.13;;;-1.90;99.90;;;;;;4173980;28;21139;-42
2021/01/11 03:45:08;;;;;;;52.67;24.00;;;-1.90;99.90;;;;;;4174275;28;20549;-43
2021/01/11 03:47:10;;;;;;;46.53;22.80;;;-2.00;99.90;;;;;;4174005;28;20262;-44
2021/01/11 03:49:11;;;;;;;47.53;22.20;;;-2.00;99.90;;;;;;4174037;28;20300;-41
2021/01/11 03:51:13;;;;;;;49.53;22.93;;;-1.90;99.90;;;;;;4173809;28;20316;-39
2021/01/11 03:53:14;;;;;;;52.80;23.13;;;-2.00;99.90;;;;;;4173903;28;20273;-40
2021/01/11 03:55:15;;;;;;;48.37;24.77;;;-1.90;99.90;;;;;;4173525;28;20274;-39
2021/01/11 03:57:16;;;;;;;45.33;21.77;;;-2.00;99.90;;;;;;4172965;28;20336;-45
2021/01/11 03:59:18;;;;;;;49.30;21.87;;;-2.00;99.90;;;;;;4173669;28;20677;-42
2021/01/11 04:01:19;;;;;;;54.93;23.43;;;-2.00;99.90;;;;;;4173049;28;20424;-40
2021/01/11 04:03:20;;;;;;;46.60;21.97;;;-2.00;99.90;;;;;;4205839;28;20688;-45
2021/01/11 04:05:21;;;;;;;44.90;20.53;;;-2.00;99.90;;;;;;4174178;28;20677;-41
2021/01/11 04:07:22;;;;;;;47.60;23.60;;;-2.10;99.90;;;;;;4174043;28;20669;-39
2021/01/11 04:09:25;;;;;;;49.50;21.97;;;-2.10;99.90;;;;;;4172985;28;20774;-39
2021/01/11 04:11:26;;;;;;;55.00;22.30;;;-2.10;99.90;;;;;;4174048;28;20340;-42
2021/01/11 04:13:27;;;;;;;45.13;20.87;;;-2.10;99.90;;;;;;4173058;28;20262;-39
2021/01/11 04:15:29;;;;;;;48.67;20.73;;;-2.10;99.90;;;;;;4173343;28;20270;-43
2021/01/11 04:17:30;;;;;;;41.37;19.10;;;-2.10;99.90;;;;;;4173331;28;20270;-41
2021/01/11 04:19:31;;;;;;;44.23;20.47;;;-2.10;99.90;;;;;;4173686;28;20312;-47
2021/01/11 04:21:32;;;;;;;45.87;20.27;;;-2.10;99.90;;;;;;4172860;28;21210;-44
2021/01/11 04:23:33;;;;;;;46.53;21.30;;;-2.10;99.90;;;;;;4173900;28;20273;-44
2021/01/11 04:25:35;;;;;;;51.57;23.77;;;-2.10;99.90;;;;;;4173151;28;20666;-44
2021/01/11 04:27:36;;;;;;;48.77;21.27;;;-2.00;99.90;;;;;;4172530;28;20363;-41
2021/01/11 04:29:38;;;;;;;51.37;23.10;;;-2.00;99.90;;;;;;4172015;28;20281;-50
2021/01/11 04:31:39;;;;;;;45.03;21.07;;;-2.00;99.90;;;;;;4172526;28;20296;-41
2021/01/11 04:33:40;;;;;;;50.73;23.37;;;-2.00;99.90;;;;;;4173499;28;20691;-42
2021/01/11 04:35:41;;;;;;;49.30;22.67;;;-2.00;99.90;;;;;;4172987;28;20258;-41
2021/01/11 04:37:43;;;;;;;43.73;20.37;;;-2.00;99.90;;;;;;4173265;28;20266;-41
2021/01/11 04:39:44;;;;;;;51.40;23.50;;;-1.90;99.90;;;;;;4172888;28;20320;-45
2021/01/11 04:41:46;;;;;;;46.97;21.23;;;-1.90;99.90;;;;;;4173003;28;20298;-40
2021/01/11 04:43:49;;;;;;;44.53;20.40;;;-1.90;99.90;;;;;;4172952;28;20270;-42
2021/01/11 04:45:51;;;;;;;42.10;20.43;;;-1.90;99.90;;;;;;4203618;28;20273;-40
2021/01/11 04:47:54;;;;;;;46.13;22.10;;;-1.90;99.90;;;;;;4172531;28;20316;-45
2021/01/11 04:49:56;;;;;;;48.00;21.97;;;-1.90;99.90;;;;;;4172415;28;20339;-39
2021/01/11 04:51:59;;;;;;;43.60;19.37;;;-1.90;99.90;;;;;;4173559;28;20278;-43
2021/01/11 04:54:01;;;;;;;45.80;20.33;;;-1.80;99.90;;;;;;4172355;28;20328;-38
2021/01/11 04:56:03;;;;;;;45.57;19.90;;;-1.90;99.90;;;;;;4172582;28;20336;-40
2021/01/11 04:58:09;;;;;;;44.57;20.67;;;-1.90;99.90;;;;;;4172306;28;20619;-47
2021/01/11 05:00:11;;;;;;;44.90;20.67;;;-1.80;99.90;;;;;;4172113;28;20258;-40
2021/01/11 05:02:20;;;;;;;40.77;18.30;;;-1.80;99.90;;;;;;4172530;28;20310;-39
2021/01/11 05:04:22;;;;;;;41.07;18.03;;;-1.80;99.90;;;;;;4172545;28;20285;-40
2021/01/11 05:06:23;;;;;;;45.93;21.03;;;-1.80;99.90;;;;;;4172509;28;20343;-39
2021/01/11 05:08:25;;;;;;;42.57;21.07;;;-1.80;99.90;;;;;;4172408;28;20669;-40
2021/01/11 05:10:35;;;;;;;44.07;22.57;;;-1.80;99.90;;;;;;4171727;28;20278;-39
2021/01/11 05:12:36;;;;;;;52.83;23.33;;;-1.80;99.90;;;;;;4172471;28;20319;-39
2021/01/11 05:14:37;;;;;;;52.87;24.00;;;-1.80;99.90;;;;;;4171445;28;21068;-49
2021/01/11 05:16:39;;;;;;;57.47;23.43;;;-1.80;99.90;;;;;;4172287;28;21302;-39
2021/01/11 05:18:41;;;;;;;47.30;21.83;;;-1.80;99.90;;;;;;4171916;28;20262;-39
2021/01/11 05:20:43;;;;;;;51.03;21.53;;;-1.80;99.90;;;;;;4155642;28;20336;-41
2021/01/11 05:22:47;;;;;;;50.50;24.10;;;-1.80;99.90;;;;;;4155843;28;20782;-38
2021/01/11 05:24:50;;;;;;;50.07;23.90;;;-1.70;99.90;;;;;;4155614;28;20678;-40
2021/01/11 05:26:52;;;;;;;44.77;21.23;;;-1.70;99.90;;;;;;4155175;28;20409;-38
2021/01/11 05:28:53;;;;;;;46.90;22.87;;;-1.70;99.90;;;;;;4155546;28;20778;-38
2021/01/11 05:30:55;;;;;;;50.30;22.03;;;-1.60;99.90;;;;;;4155304;28;20755;-45
2021/01/11 05:32:56;;;;;;;48.33;22.73;;;-1.70;99.90;;;;;;4155418;28;20699;-40
2021/01/11 05:34:57;;;;;;;53.87;23.00;;;-1.70;99.90;;;;;;4156188;28;20313;-40
2021/01/11 05:36:59;;;;;;;44.33;21.07;;;-1.70;99.90;;;;;;4164733;28;20323;-38
2021/01/11 05:39:07;;;;;;;50.03;22.67;;;-1.70;99.90;;;;;;4171977;28;20737;-39
2021/01/11 05:41:27;;;;;;;57.90;24.33;;;-1.70;99.90;;;;;;4171077;28;20319;-38
2021/01/11 05:43:30;;;;;;;49.53;24.03;;;-1.60;99.90;;;;;;4172375;28;20347;-52
2021/01/11 05:45:35;;;;;;;44.00;20.97;;;-1.60;99.90;;;;;;4172005;28;20332;-42
2021/01/11 05:47:59;;;;;;;49.93;23.17;;;-1.60;99.90;;;;;;4183376;28;20323;-38
2021/01/11 05:50:07;;;;;;;49.60;21.40;;;-1.60;99.90;;;;;;4155606;28;20275;-39
2021/01/11 05:52:15;;;;;;;45.20;20.40;;;-1.60;99.90;;;;;;4155645;28;20344;-37
2021/01/11 05:54:26;;;;;;;47.70;22.17;;;-1.60;99.90;;;;;;4155578;28;20266;-45
2021/01/11 05:56:48;;;;;;;45.43;19.27;;;-1.50;99.90;;;;;;4155285;28;20746;-52
2021/01/11 05:59:06;;;;;;;49.03;21.10;;;-1.50;99.90;;;;;;4155503;28;20285;-41
2021/01/11 06:01:07;;;;;;;44.37;20.57;;;-1.50;99.90;;;;;;4155376;28;20845;-45
2021/01/11 06:03:10;;;;;;;48.57;21.00;;;-1.40;99.90;;;;;;4159788;28;20584;-42
2021/01/11 06:05:11;;;;;;;42.37;19.87;;;-1.40;99.90;;;;;;4172083;28;20344;-56
2021/01/11 06:07:13;;;;;;;46.40;21.23;;;-1.40;99.90;;;;;;4167690;28;20348;-47
2021/01/11 06:09:17;;;;;;;51.27;22.33;;;-1.40;99.90;;;;;;4170785;28;20347;-40
2021/01/11 06:11:26;;;;;;;54.03;21.97;;;-1.40;99.90;;;;;;4169437;28;20443;-43
2021/01/11 06:13:28;;;;;;;69.87;27.57;;;-1.40;99.90;;;;;;4187016;28;20277;-38
2021/01/11 06:15:29;;;;;;;65.23;26.50;;;-1.40;99.90;;;;;;4181225;28;20751;-52
2021/01/11 06:17:31;;;;;;;60.33;27.10;;;-1.40;99.90;;;;;;4172373;28;20336;-41
2021/01/11 06:19:34;;;;;;;61.17;27.10;;;-1.30;99.90;;;;;;4170723;28;21140;-40
2021/01/11 06:21:35;;;;;;;65.53;28.63;;;-1.30;99.90;;;;;;4172397;28;20258;-45
2021/01/11 06:23:38;;;;;;;54.60;24.80;;;-1.30;99.90;;;;;;4172114;28;20298;-35
2021/01/11 06:25:43;;;;;;;55.33;25.60;;;-1.30;99.90;;;;;;4202850;28;20292;-38
2021/01/11 06:28:02;;;;;;;50.53;24.27;;;-1.20;99.90;;;;;;4171348;28;20721;-38
2021/01/11 06:30:04;;;;;;;59.73;25.87;;;-1.20;99.90;;;;;;4171849;28;20278;-37
2021/01/11 06:32:23;;;;;;;54.40;25.60;;;-1.30;99.90;;;;;;4171761;28;20650;-37
2021/01/11 06:34:37;;;;;;;56.80;24.37;;;-1.30;99.90;;;;;;4171790;28;20292;-37
2021/01/11 06:36:38;;;;;;;54.60;24.83;;;-1.30;99.90;;;;;;4171961;28;20304;-38
2021/01/11 06:38:41;;;;;;;55.73;25.50;;;-1.40;99.90;;;;;;4171969;28;20282;-37
2021/01/11 06:40:42;;;;;;;57.97;26.67;;;-1.40;99.90;;;;;;4171686;28;20274;-40
2021/01/11 06:42:43;;;;;;;62.83;27.17;;;-1.40;99.90;;;;;;4171449;28;20681;-37
2021/01/11 06:44:49;;;;;;;63.03;29.40;;;-1.40;99.90;;;;;;4171942;28;20278;-36
2021/01/11 06:46:51;;;;;;;76.53;32.57;;;-1.40;99.90;;;;;;4171799;28;20309;-41
2021/01/11 06:48:54;;;;;;;72.23;33.03;;;-1.40;99.90;;;;;;4171372;28;20262;-37
2021/01/11 06:51:10;;;;;;;69.87;30.97;;;-1.40;99.90;;;;;;4171810;28;20270;-40
2021/01/11 06:53:12;;;;;;;68.10;31.77;;;-1.40;99.90;;;;;;4173779;28;20356;-43
2021/01/11 06:55:16;;;;;;;80.53;35.20;;;-1.30;99.90;;;;;;4174614;28;20266;-40
2021/01/11 06:57:19;;;;;;;54.20;26.37;;;-1.30;99.90;;;;;;4175110;28;20266;-37
2021/01/11 06:59:22;;;;;;;67.87;32.03;;;-1.40;99.90;;;;;;4174992;28;20678;-39
2021/01/11 07:01:28;;;;;;;67.03;31.57;;;-1.30;99.90;;;;;;4174527;28;20270;-38
2021/01/11 07:04:01;;;;;;;57.93;28.20;;;-1.30;99.90;;;;;;4182375;28;20294;-38
2021/01/11 07:06:03;;;;;;;73.40;35.50;;;-1.30;99.90;;;;;;4168421;28;20669;-37
2021/01/11 07:08:21;;;;;;;84.80;37.13;;;-1.30;99.90;;;;;;4191279;28;20269;-40
2021/01/11 07:10:25;;;;;;;77.17;33.93;;;-1.30;99.90;;;;;;4191277;28;20273;-37
2021/01/11 07:12:27;;;;;;;65.67;30.47;;;-1.30;99.90;;;;;;4191271;28;20611;-38
2021/01/11 07:14:57;;;;;;;69.50;30.87;;;-1.30;99.90;;;;;;4191316;28;20273;-37
2021/01/11 07:16:58;;;;;;;63.60;29.07;;;-1.30;99.90;;;;;;4190741;28;20281;-38
2021/01/11 07:18:59;;;;;;;68.30;32.87;;;-1.20;99.90;;;;;;4189893;28;20327;-38
2021/01/11 07:21:14;;;;;;;63.23;30.83;;;-1.20;99.90;;;;;;4190827;28;20327;-40
2021/01/11 07:23:15;;;;;;;72.33;34.77;;;-1.10;99.90;;;;;;4173085;28;20301;-42
2021/01/11 07:25:22;;;;;;;76.20;38.70;;;-1.10;99.90;;;;;;4170154;28;20335;-39
2021/01/11 07:27:23;;;;;;;78.80;37.43;;;-1.00;99.90;;;;;;4173791;28;20286;-36
2021/01/11 07:29:24;;;;;;;64.63;30.80;;;-0.90;99.90;;;;;;4174323;28;20266;-39
2021/01/11 07:31:35;;;;;;;75.43;36.00;;;-0.90;99.90;;;;;;4174670;28;20266;-37
2021/01/11 07:33:37;;;;;;;67.03;33.03;;;-1.00;99.90;;;;;;4174582;28;20270;-38
2021/01/11 07:35:39;;;;;;;68.27;31.60;;;-0.90;99.90;;;;;;4206522;28;20303;-39
2021/01/11 07:37:40;;;;;;;61.63;29.37;;;-0.90;99.90;;;;;;4173621;28;20270;-42
2021/01/11 07:39:42;;;;;;;59.50;27.50;;;-0.90;99.90;;;;;;4174501;28;20328;-47
2021/01/11 07:41:50;;;;;;;53.20;27.27;;;-0.90;99.90;;;;;;4174277;28;20834;-40
2021/01/11 07:43:52;;;;;;;56.80;28.03;;;-0.90;99.90;;;;;;4174255;28;20290;-40
2021/01/11 07:46:04;;;;;;;54.37;25.37;;;-0.80;99.90;;;;;;4174125;28;20258;-37
2021/01/11 07:48:06;;;;;;;48.07;22.20;;;-0.70;99.90;;;;;;4173831;28;20304;-39
2021/01/11 07:50:08;;;;;;;48.47;24.03;;;-0.60;99.90;;;;;;4171833;28;20294;-37
2021/01/11 07:52:11;;;;;;;54.80;26.40;;;-0.50;99.90;;;;;;4170265;28;20682;-47
2021/01/11 07:54:20;;;;;;;55.53;26.33;;;-0.50;99.90;;;;;;4188994;28;20327;-43
2021/01/11 07:56:21;;;;;;;49.53;24.73;;;-0.30;99.90;;;;;;4176459;28;20757;-35
2021/01/11 07:58:24;;;;;;;53.27;26.70;;;-0.30;99.90;;;;;;4173825;28;20277;-37
2021/01/11 08:00:25;;;;;;;52.60;25.60;;;-0.30;99.90;;;;;;4173550;28;20274;-35
2021/01/11 08:02:28;;;;;;;50.97;25.70;;;-0.30;99.90;;;;;;4173164;28;20847;-36
2021/01/11 08:04:39;;;;;;;61.13;28.77;;;-0.30;99.90;;;;;;4172028;28;20308;-35
2021/01/11 08:06:57;;;;;;;55.40;26.63;;;-0.30;99.90;;;;;;4176662;28;21106;-39
2021/01/11 08:09:01;;;;;;;60.67;28.83;;;-0.30;99.90;;;;;;4173513;28;20513;-38
2021/01/11 08:11:05;;;;;;;70.73;31.90;;;-0.30;99.90;;;;;;4173390;28;20282;-33
2021/01/11 08:13:07;;;;;;;67.90;32.00;;;-0.30;99.90;;;;;;4173419;28;20746;-36
2021/01/11 08:15:09;;;;;;;70.53;33.20;;;-0.30;99.90;;;;;;4173867;28;20270;-37
2021/01/11 08:17:21;;;;;;;63.03;31.43;;;-0.20;99.90;;;;;;4173263;28;20685;-48
2021/01/11 08:19:23;;;;;;;48.37;22.87;;;-0.30;99.90;;;;;;4172959;28;20274;-39
2021/01/11 08:21:24;;;;;;;49.10;24.10;;;-0.30;99.90;;;;;;4180471;28;20334;-37
2021/01/11 08:23:27;;;;;;;51.90;24.60;;;-0.40;99.90;;;;;;4189857;28;20681;-36
2021/01/11 08:25:28;;;;;;;45.60;22.10;;;-0.40;99.90;;;;;;4172362;28;20258;-37
2021/01/11 08:27:36;;;;;;;41.10;20.50;;;-0.40;99.90;;;;;;4173369;28;20290;-37
2021/01/11 08:29:40;;;;;;;45.70;22.20;;;-0.40;99.90;;;;;;4172957;28;20829;-35
2021/01/11 08:31:43;;;;;;;41.87;19.10;;;-0.40;99.90;;;;;;4173041;28;20266;-38
2021/01/11 08:33:45;;;;;;;43.80;21.23;;;-0.30;99.90;;;;;;4172449;28;20270;-38
2021/01/11 08:35:46;;;;;;;48.13;23.80;;;-0.40;99.90;;;;;;4172089;28;20323;-37
2021/01/11 08:37:47;;;;;;;41.53;20.57;;;-0.40;99.90;;;;;;4172377;28;20770;-37
2021/01/11 08:39:59;;;;;;;40.83;20.90;;;-0.40;99.90;;;;;;4173287;28;20711;-38
2021/01/11 08:42:01;;;;;;;39.43;19.03;;;-0.50;99.90;;;;;;4173132;28;20923;-37
2021/01/11 08:44:02;;;;;;;44.90;19.73;;;-0.50;99.90;;;;;;4172992;28;20855;-50
2021/01/11 08:46:03;;;;;;;44.93;22.50;;;-0.60;99.90;;;;;;4173191;28;20332;-35
2021/01/11 08:48:10;;;;;;;42.80;20.77;;;-0.60;99.90;;;;;;4172896;28;20395;-44
2021/01/11 08:50:11;;;;;;;44.47;20.43;;;-0.50;99.90;;;;;;4173100;28;20278;-38
2021/01/11 08:52:13;;;;;;;44.20;20.80;;;-0.50;99.90;;;;;;4171053;28;20262;-39
2021/01/11 08:54:30;;;;;;;35.97;19.17;;;-0.50;99.90;;;;;;4172346;28;20286;-35
2021/01/11 08:56:35;;;;;;;44.63;18.50;;;-0.50;99.90;;;;;;4182700;28;20278;-37
2021/01/11 08:58:48;;;;;;;50.03;19.30;;;-0.40;99.90;;;;;;4172271;28;20684;-38
2021/01/11 09:00:49;;;;;;;38.30;18.93;;;-0.40;99.90;;;;;;4172253;28;20340;-38
2021/01/11 09:02:50;;;;;;;40.70;19.00;;;-0.40;99.90;;;;;;4196984;28;20366;-40
2021/01/11 09:04:51;;;;;;;35.80;17.57;;;-0.30;99.90;;;;;;4166907;28;20266;-37
2021/01/11 09:06:59;;;;;;;34.30;18.23;;;-0.30;99.90;;;;;;4187635;28;20292;-35
2021/01/11 09:09:17;;;;;;;36.83;18.60;;;-0.30;99.90;;;;;;4172957;28;21100;-40
2021/01/11 09:11:18;;;;;;;34.97;18.43;;;-0.30;99.90;;;;;;4172429;28;20351;-39
2021/01/11 09:13:22;;;;;;;40.50;19.70;;;-0.20;99.90;;;;;;4171036;28;20516;-37
2021/01/11 09:15:27;;;;;;;36.33;17.57;;;-0.20;99.90;;;;;;4155177;28;20341;-56
2021/01/11 09:17:30;;;;;;;32.77;15.60;;;-0.20;99.90;;;;;;4156301;28;20266;-56
2021/01/11 09:19:32;;;;;;;37.10;16.43;;;-0.10;99.90;;;;;;4155973;28;20316;-43
2021/01/11 09:21:33;;;;;;;34.10;16.63;;;-0.20;99.90;;;;;;4155940;28;20321;-39
2021/01/11 09:23:35;;;;;;;33.73;16.63;;;-0.10;99.90;;;;;;4156154;28;20779;-51
2021/01/11 09:25:36;;;;;;;32.30;16.63;;;-0.10;99.90;;;;;;4155785;28;20678;-51
2021/01/11 09:27:39;;;;;;;32.83;16.97;;;-0.10;99.90;;;;;;4154349;28;20290;-44
2021/01/11 09:29:40;;;;;;;31.23;15.13;;;-0.20;99.90;;;;;;4156404;28;20833;-53
2021/01/11 09:31:42;;;;;;;26.70;13.50;;;-0.20;99.90;;;;;;4172678;28;20741;-53
2021/01/11 09:33:43;;;;;;;30.30;16.10;;;-0.20;99.90;;;;;;4172299;28;20282;-56
2021/01/11 09:35:44;;;;;;;32.63;16.33;;;-0.20;99.90;;;;;;4172374;28;20282;-51
2021/01/11 09:37:45;;;;;;;27.93;14.93;;;-0.20;99.90;;;;;;4172155;28;20286;-52
2021/01/11 09:39:47;;;;;;;28.70;14.30;;;-0.20;99.90;;;;;;4171182;28;20293;-39
2021/01/11 09:41:51;;;;;;;31.73;15.70;;;-0.20;99.90;;;;;;4171367;28;20290;-37
2021/01/11 09:43:52;;;;;;;26.37;14.90;;;-0.20;99.90;;;;;;4171526;28;20366;-38
2021/01/11 09:45:53;;;;;;;27.87;14.67;;;-0.10;99.90;;;;;;4171363;28;20274;-38
2021/01/11 09:47:55;;;;;;;29.60;15.17;;;-0.20;99.90;;;;;;4171950;28;20662;-37
2021/01/11 09:49:56;;;;;;;34.23;14.93;;;-0.20;99.90;;;;;;4172085;28;20769;-36
2021/01/11 09:51:57;;;;;;;33.10;16.23;;;-0.20;99.90;;;;;;4171140;28;20823;-42
2021/01/11 09:53:59;;;;;;;33.83;16.83;;;-0.20;99.90;;;;;;4171865;28;20332;-37
2021/01/11 09:56:03;;;;;;;30.70;16.20;;;-0.20;99.90;;;;;;4171266;28;20335;-39
2021/01/11 09:58:04;;;;;;;37.53;18.00;;;-0.20;99.90;;;;;;4172417;28;20669;-36
2021/01/11 10:00:14;;;;;;;36.23;17.57;;;-0.20;99.90;;;;;;4171766;28;20254;-37
2021/01/11 10:02:15;;;;;;;32.67;17.63;;;-0.20;99.90;;;;;;4171595;28;20826;-36
2021/01/11 10:04:18;;;;;;;40.03;21.10;;;-0.10;99.90;;;;;;4171379;28;20297;-37
2021/01/11 10:06:19;;;;;;;44.03;19.90;;;-0.10;99.90;;;;;;4172541;28;20277;-40
2021/01/11 10:08:20;;;;;;;38.67;18.53;;;-0.10;99.90;;;;;;4171631;28;20332;-37
2021/01/11 10:10:21;;;;;;;43.27;19.50;;;-0.10;99.90;;;;;;4171892;28;20282;-36
2021/01/11 10:12:22;;;;;;;36.77;18.37;;;-0.10;99.90;;;;;;4171776;28;20286;-35
2021/01/11 10:14:25;;;;;;;35.83;18.57;;;-0.10;99.90;;;;;;4180623;28;20319;-39
2021/01/11 10:16:26;;;;;;;34.10;16.80;;;0.00;99.90;;;;;;4188568;28;20258;-38
2021/01/11 10:18:27;;;;;;;31.83;16.10;;;0.00;99.90;;;;;;4188673;28;20261;-41
2021/01/11 10:20:28;;;;;;;26.00;13.33;;;0.00;99.90;;;;;;4188591;28;20323;-37
2021/01/11 10:22:29;;;;;;;26.60;13.47;;;0.00;99.90;;;;;;4188554;28;20319;-37
2021/01/11 10:24:31;;;;;;;30.30;16.30;;;0.10;99.90;;;;;;4188288;28;20301;-37
2021/01/11 10:26:33;;;;;;;20.47;11.13;;;0.00;99.90;;;;;;4182583;28;20701;-36
2021/01/11 10:28:34;;;;;;;25.60;11.37;;;0.00;99.90;;;;;;4191784;28;20869;-36
2021/01/11 10:30:36;;;;;;;27.47;13.93;;;0.00;99.90;;;;;;4191507;28;20745;-42